sensor_id;sensor_type;location;lat;lon;timestamp;temperature;humidity
59146;DHT22;44928;53.074;6.646;2023-07-08T00:00:21;17.90;99.90
59146;DHT22;44928;53.074;6.646;2023-07-08T00:02:47;17.90;99.90
59146;DHT22;44928;53.074;6.646;2023-07-08T00:05:16;17.80;99.90
59146;DHT22;44928;53.074;6.646;2023-07-08T00:07:42;17.80;99.90
59146;DHT22;44928;53.074;6.646;2023-07-08T00:10:20;17.70;99.90
59146;DHT22;44928;53.074;6.646;2023-07-08T00:12:49;17.70;99.90
59146;DHT22;44928;53.074;6.646;2023-07-08T00:15:15;17.60;99.90
59146;DHT22;44928;53.074;6.646;2023-07-08T00:17:42;17.60;99.90
59146;DHT22;44928;53.074;6.646;2023-07-08T00:20:32;17.60;99.90
59146;DHT22;44928;53.074;6.646;2023-07-08T00:22:58;17.50;99.90
59146;DHT22;44928;53.074;6.646;2023-07-08T00:25:27;17.50;99.90
59146;DHT22;44928;53.074;6.646;2023-07-08T00:27:53;17.50;99.90
59146;DHT22;44928;53.074;6.646;2023-07-08T00:30:31;17.40;99.90
59146;DHT22;44928;53.074;6.646;2023-07-08T00:32:58;17.40;99.90
59146;DHT22;44928;53.074;6.646;2023-07-08T00:37:55;17.30;99.90
59146;DHT22;44928;53.074;6.646;2023-07-08T00:40:31;17.30;99.90
59146;DHT22;44928;53.074;6.646;2023-07-08T00:43:03;17.20;99.90
59146;DHT22;44928;53.074;6.646;2023-07-08T00:45:40;17.20;99.90
59146;DHT22;44928;53.074;6.646;2023-07-08T00:48:45;17.10;99.90
59146;DHT22;44928;53.074;6.646;2023-07-08T00:51:11;17.10;99.90
59146;DHT22;44928;53.074;6.646;2023-07-08T00:53:38;17.10;99.90
59146;DHT22;44928;53.074;6.646;2023-07-08T00:56:11;17.10;99.90
59146;DHT22;44928;53.074;6.646;2023-07-08T01:01:18;17.00;99.90
59146;DHT22;44928;53.074;6.646;2023-07-08T01:04:11;17.00;99.90
59146;DHT22;44928;53.074;6.646;2023-07-08T01:06:42;16.90;99.90
59146;DHT22;44928;53.074;6.646;2023-07-08T01:09:11;16.90;99.90
59146;DHT22;44928;53.074;6.646;2023-07-08T01:11:40;16.90;99.90
59146;DHT22;44928;53.074;6.646;2023-07-08T01:14:09;16.80;99.90
59146;DHT22;44928;53.074;6.646;2023-07-08T01:16:36;16.80;99.90
59146;DHT22;44928;53.074;6.646;2023-07-08T01:19:04;16.80;99.90
59146;DHT22;44928;53.074;6.646;2023-07-08T01:21:44;16.80;99.90
59146;DHT22;44928;53.074;6.646;2023-07-08T01:24:10;16.80;99.90
59146;DHT22;44928;53.074;6.646;2023-07-08T01:26:40;16.80;99.90
59146;DHT22;44928;53.074;6.646;2023-07-08T01:29:08;16.80;99.90
59146;DHT22;44928;53.074;6.646;2023-07-08T01:31:34;16.70;99.90
59146;DHT22;44928;53.074;6.646;2023-07-08T01:34:00;16.70;99.90
59146;DHT22;44928;53.074;6.646;2023-07-08T01:36:31;16.70;99.90
59146;DHT22;44928;53.074;6.646;2023-07-08T01:38:59;16.70;99.90
59146;DHT22;44928;53.074;6.646;2023-07-08T01:41:24;16.70;99.90
59146;DHT22;44928;53.074;6.646;2023-07-08T01:43:50;16.70;99.90
59146;DHT22;44928;53.074;6.646;2023-07-08T01:46:26;16.70;99.90
59146;DHT22;44928;53.074;6.646;2023-07-08T01:48:56;16.60;99.90
59146;DHT22;44928;53.074;6.646;2023-07-08T01:51:23;16.60;99.90
59146;DHT22;44928;53.074;6.646;2023-07-08T01:53:49;16.60;99.90
59146;DHT22;44928;53.074;6.646;2023-07-08T01:56:15;16.60;99.90
59146;DHT22;44928;53.074;6.646;2023-07-08T01:58:41;16.60;99.90
59146;DHT22;44928;53.074;6.646;2023-07-08T02:01:07;16.50;99.90
59146;DHT22;44928;53.074;6.646;2023-07-08T02:03:33;16.50;99.90
59146;DHT22;44928;53.074;6.646;2023-07-08T02:05:59;16.50;99.90
59146;DHT22;44928;53.074;6.646;2023-07-08T02:08:25;16.40;99.90
59146;DHT22;44928;53.074;6.646;2023-07-08T02:10:53;16.50;99.90
59146;DHT22;44928;53.074;6.646;2023-07-08T02:13:20;16.40;99.90
59146;DHT22;44928;53.074;6.646;2023-07-08T02:15:47;16.40;99.90
59146;DHT22;44928;53.074;6.646;2023-07-08T02:18:13;16.30;99.90
59146;DHT22;44928;53.074;6.646;2023-07-08T02:20:39;16.30;99.90
59146;DHT22;44928;53.074;6.646;2023-07-08T02:23:05;16.20;99.90
59146;DHT22;44928;53.074;6.646;2023-07-08T02:25:30;16.20;99.90
59146;DHT22;44928;53.074;6.646;2023-07-08T02:27:56;16.20;99.90
59146;DHT22;44928;53.074;6.646;2023-07-08T02:30:26;16.10;99.90
59146;DHT22;44928;53.074;6.646;2023-07-08T02:32:52;16.10;99.90
59146;DHT22;44928;53.074;6.646;2023-07-08T02:35:27;16.10;99.90
59146;DHT22;44928;53.074;6.646;2023-07-08T02:37:54;16.10;99.90
59146;DHT22;44928;53.074;6.646;2023-07-08T02:40:21;16.10;99.90
59146;DHT22;44928;53.074;6.646;2023-07-08T02:42:48;16.10;99.90
59146;DHT22;44928;53.074;6.646;2023-07-08T02:45:15;16.10;99.90
59146;DHT22;44928;53.074;6.646;2023-07-08T02:47:41;16.10;99.90
59146;DHT22;44928;53.074;6.646;2023-07-08T02:50:08;16.10;99.90
59146;DHT22;44928;53.074;6.646;2023-07-08T02:52:35;16.10;99.90
59146;DHT22;44928;53.074;6.646;2023-07-08T02:55:01;16.10;99.90
59146;DHT22;44928;53.074;6.646;2023-07-08T02:57:27;16.10;99.90
59146;DHT22;44928;53.074;6.646;2023-07-08T02:59:53;16.00;99.90
59146;DHT22;44928;53.074;6.646;2023-07-08T03:02:18;16.00;99.90
59146;DHT22;44928;53.074;6.646;2023-07-08T03:04:44;16.00;99.90
59146;DHT22;44928;53.074;6.646;2023-07-08T03:07:11;16.00;99.90
59146;DHT22;44928;53.074;6.646;2023-07-08T03:09:40;16.00;99.90
59146;DHT22;44928;53.074;6.646;2023-07-08T03:12:07;15.90;99.90
59146;DHT22;44928;53.074;6.646;2023-07-08T03:14:33;15.90;99.90
59146;DHT22;44928;53.074;6.646;2023-07-08T03:16:59;15.90;99.90
59146;DHT22;44928;53.074;6.646;2023-07-08T03:19:25;15.90;99.90
59146;DHT22;44928;53.074;6.646;2023-07-08T03:21:51;15.90;99.90
59146;DHT22;44928;53.074;6.646;2023-07-08T03:24:17;15.90;99.90
59146;DHT22;44928;53.074;6.646;2023-07-08T03:26:46;15.80;99.90
59146;DHT22;44928;53.074;6.646;2023-07-08T03:29:15;15.80;99.90
59146;DHT22;44928;53.074;6.646;2023-07-08T03:31:42;15.90;99.90
59146;DHT22;44928;53.074;6.646;2023-07-08T03:34:10;15.90;99.90
59146;DHT22;44928;53.074;6.646;2023-07-08T03:36:42;15.90;99.90
59146;DHT22;44928;53.074;6.646;2023-07-08T03:39:15;15.90;99.90
59146;DHT22;44928;53.074;6.646;2023-07-08T03:41:41;15.90;99.90
59146;DHT22;44928;53.074;6.646;2023-07-08T03:44:07;15.90;99.90
59146;DHT22;44928;53.074;6.646;2023-07-08T03:46:33;16.00;99.90
59146;DHT22;44928;53.074;6.646;2023-07-08T03:48:59;16.00;99.90
59146;DHT22;44928;53.074;6.646;2023-07-08T03:51:34;16.00;99.90
59146;DHT22;44928;53.074;6.646;2023-07-08T03:54:00;16.00;99.90
59146;DHT22;44928;53.074;6.646;2023-07-08T03:56:26;16.00;99.90
59146;DHT22;44928;53.074;6.646;2023-07-08T03:58:52;16.00;99.90
59146;DHT22;44928;53.074;6.646;2023-07-08T04:01:19;16.00;99.90
59146;DHT22;44928;53.074;6.646;2023-07-08T04:03:53;16.00;99.90
59146;DHT22;44928;53.074;6.646;2023-07-08T04:06:20;16.00;99.90
59146;DHT22;44928;53.074;6.646;2023-07-08T04:08:46;16.00;99.90
59146;DHT22;44928;53.074;6.646;2023-07-08T04:11:13;16.00;99.90
59146;DHT22;44928;53.074;6.646;2023-07-08T04:13:40;16.00;99.90
59146;DHT22;44928;53.074;6.646;2023-07-08T04:16:06;16.00;99.90
59146;DHT22;44928;53.074;6.646;2023-07-08T04:18:32;16.00;99.90
59146;DHT22;44928;53.074;6.646;2023-07-08T04:20:58;16.00;99.90
59146;DHT22;44928;53.074;6.646;2023-07-08T04:23:24;16.00;99.90
59146;DHT22;44928;53.074;6.646;2023-07-08T04:25:54;16.00;99.90
59146;DHT22;44928;53.074;6.646;2023-07-08T04:28:20;16.00;99.90
59146;DHT22;44928;53.074;6.646;2023-07-08T04:30:47;16.00;99.90
59146;DHT22;44928;53.074;6.646;2023-07-08T04:33:15;16.10;99.90
59146;DHT22;44928;53.074;6.646;2023-07-08T04:35:41;16.10;99.90
59146;DHT22;44928;53.074;6.646;2023-07-08T04:38:23;16.10;99.90
59146;DHT22;44928;53.074;6.646;2023-07-08T04:40:50;16.10;99.90
59146;DHT22;44928;53.074;6.646;2023-07-08T04:43:20;16.10;99.90
59146;DHT22;44928;53.074;6.646;2023-07-08T04:45:49;16.10;99.90
59146;DHT22;44928;53.074;6.646;2023-07-08T04:48:17;16.20;99.90
59146;DHT22;44928;53.074;6.646;2023-07-08T04:50:46;16.20;99.90
59146;DHT22;44928;53.074;6.646;2023-07-08T04:53:13;16.20;99.90
59146;DHT22;44928;53.074;6.646;2023-07-08T04:55:46;16.20;99.90
59146;DHT22;44928;53.074;6.646;2023-07-08T04:58:12;16.30;99.90
59146;DHT22;44928;53.074;6.646;2023-07-08T05:00:38;16.30;99.90
59146;DHT22;44928;53.074;6.646;2023-07-08T05:03:04;16.30;99.90
59146;DHT22;44928;53.074;6.646;2023-07-08T05:05:30;16.30;99.90
59146;DHT22;44928;53.074;6.646;2023-07-08T05:07:56;16.40;99.90
59146;DHT22;44928;53.074;6.646;2023-07-08T05:10:21;16.40;99.90
59146;DHT22;44928;53.074;6.646;2023-07-08T05:12:48;16.40;99.90
59146;DHT22;44928;53.074;6.646;2023-07-08T05:15:14;16.50;99.90
59146;DHT22;44928;53.074;6.646;2023-07-08T05:17:41;16.50;99.90
59146;DHT22;44928;53.074;6.646;2023-07-08T05:20:12;16.60;99.90
59146;DHT22;44928;53.074;6.646;2023-07-08T05:22:39;16.60;99.90
59146;DHT22;44928;53.074;6.646;2023-07-08T05:25:05;16.60;99.90
59146;DHT22;44928;53.074;6.646;2023-07-08T05:27:32;16.70;99.90
59146;DHT22;44928;53.074;6.646;2023-07-08T05:30:04;16.70;99.90
59146;DHT22;44928;53.074;6.646;2023-07-08T05:32:31;16.80;99.90
59146;DHT22;44928;53.074;6.646;2023-07-08T05:34:57;16.80;99.90
59146;DHT22;44928;53.074;6.646;2023-07-08T05:37:23;16.90;99.90
59146;DHT22;44928;53.074;6.646;2023-07-08T05:39:53;17.00;99.90
59146;DHT22;44928;53.074;6.646;2023-07-08T05:42:20;17.00;99.90
59146;DHT22;44928;53.074;6.646;2023-07-08T05:44:47;17.00;99.90
59146;DHT22;44928;53.074;6.646;2023-07-08T05:47:14;17.00;99.90
59146;DHT22;44928;53.074;6.646;2023-07-08T05:49:40;17.00;99.90
59146;DHT22;44928;53.074;6.646;2023-07-08T05:52:06;17.10;99.90
59146;DHT22;44928;53.074;6.646;2023-07-08T05:54:37;17.10;99.90
59146;DHT22;44928;53.074;6.646;2023-07-08T05:57:04;17.10;99.90
59146;DHT22;44928;53.074;6.646;2023-07-08T05:59:30;17.10;99.90
59146;DHT22;44928;53.074;6.646;2023-07-08T06:01:56;17.20;99.90
59146;DHT22;44928;53.074;6.646;2023-07-08T06:04:22;17.20;99.90
59146;DHT22;44928;53.074;6.646;2023-07-08T06:06:48;17.30;99.90
59146;DHT22;44928;53.074;6.646;2023-07-08T06:09:14;17.30;99.90
59146;DHT22;44928;53.074;6.646;2023-07-08T06:11:39;17.40;99.90
59146;DHT22;44928;53.074;6.646;2023-07-08T06:14:05;17.50;99.90
59146;DHT22;44928;53.074;6.646;2023-07-08T06:16:31;17.60;99.90
59146;DHT22;44928;53.074;6.646;2023-07-08T06:18:57;17.70;99.90
59146;DHT22;44928;53.074;6.646;2023-07-08T06:21:23;17.70;99.90
59146;DHT22;44928;53.074;6.646;2023-07-08T06:23:49;17.80;99.90
59146;DHT22;44928;53.074;6.646;2023-07-08T06:26:15;17.90;99.90
59146;DHT22;44928;53.074;6.646;2023-07-08T06:28:41;18.00;99.90
59146;DHT22;44928;53.074;6.646;2023-07-08T06:31:06;18.00;99.90
59146;DHT22;44928;53.074;6.646;2023-07-08T06:33:32;18.10;99.90
59146;DHT22;44928;53.074;6.646;2023-07-08T06:35:58;18.20;99.90
59146;DHT22;44928;53.074;6.646;2023-07-08T06:38:24;18.20;99.90
59146;DHT22;44928;53.074;6.646;2023-07-08T06:40:49;18.30;99.90
59146;DHT22;44928;53.074;6.646;2023-07-08T06:43:15;18.40;99.90
59146;DHT22;44928;53.074;6.646;2023-07-08T06:45:42;18.50;99.90
59146;DHT22;44928;53.074;6.646;2023-07-08T06:48:08;18.50;99.90
59146;DHT22;44928;53.074;6.646;2023-07-08T06:50:34;18.60;99.90
59146;DHT22;44928;53.074;6.646;2023-07-08T06:52:59;18.60;99.90
59146;DHT22;44928;53.074;6.646;2023-07-08T06:55:25;18.70;99.90
59146;DHT22;44928;53.074;6.646;2023-07-08T06:57:51;18.70;99.90
59146;DHT22;44928;53.074;6.646;2023-07-08T07:00:17;18.80;99.90
59146;DHT22;44928;53.074;6.646;2023-07-08T07:02:43;18.80;99.90
59146;DHT22;44928;53.074;6.646;2023-07-08T07:05:09;18.90;99.90
59146;DHT22;44928;53.074;6.646;2023-07-08T07:07:35;19.00;99.90
59146;DHT22;44928;53.074;6.646;2023-07-08T07:10:01;19.10;99.90
59146;DHT22;44928;53.074;6.646;2023-07-08T07:12:27;19.20;99.90
59146;DHT22;44928;53.074;6.646;2023-07-08T07:14:53;19.30;99.90
59146;DHT22;44928;53.074;6.646;2023-07-08T07:17:23;19.40;99.90
59146;DHT22;44928;53.074;6.646;2023-07-08T07:19:50;19.50;99.90
59146;DHT22;44928;53.074;6.646;2023-07-08T07:22:15;19.60;99.90
59146;DHT22;44928;53.074;6.646;2023-07-08T07:24:41;19.60;99.90
59146;DHT22;44928;53.074;6.646;2023-07-08T07:27:08;19.70;99.90
59146;DHT22;44928;53.074;6.646;2023-07-08T07:29:44;19.80;99.90
59146;DHT22;44928;53.074;6.646;2023-07-08T07:32:10;19.90;99.90
59146;DHT22;44928;53.074;6.646;2023-07-08T07:34:37;20.00;99.90
59146;DHT22;44928;53.074;6.646;2023-07-08T07:37:04;20.00;99.90
59146;DHT22;44928;53.074;6.646;2023-07-08T07:39:29;20.10;99.90
59146;DHT22;44928;53.074;6.646;2023-07-08T07:41:55;20.20;99.90
59146;DHT22;44928;53.074;6.646;2023-07-08T07:44:21;20.30;99.90
59146;DHT22;44928;53.074;6.646;2023-07-08T07:46:47;20.30;99.90
59146;DHT22;44928;53.074;6.646;2023-07-08T07:49:13;20.40;99.90
59146;DHT22;44928;53.074;6.646;2023-07-08T07:51:38;20.40;99.90
59146;DHT22;44928;53.074;6.646;2023-07-08T07:54:04;20.60;99.90
59146;DHT22;44928;53.074;6.646;2023-07-08T07:56:30;20.70;99.90
59146;DHT22;44928;53.074;6.646;2023-07-08T07:58:56;20.70;99.90
59146;DHT22;44928;53.074;6.646;2023-07-08T08:01:22;20.80;99.90
59146;DHT22;44928;53.074;6.646;2023-07-08T08:03:48;20.90;99.90
59146;DHT22;44928;53.074;6.646;2023-07-08T08:06:18;21.00;99.90
59146;DHT22;44928;53.074;6.646;2023-07-08T08:08:44;21.10;99.90
59146;DHT22;44928;53.074;6.646;2023-07-08T08:11:11;21.20;99.90
59146;DHT22;44928;53.074;6.646;2023-07-08T08:13:37;21.30;99.90
59146;DHT22;44928;53.074;6.646;2023-07-08T08:16:04;21.40;99.90
59146;DHT22;44928;53.074;6.646;2023-07-08T08:18:30;21.50;99.90
59146;DHT22;44928;53.074;6.646;2023-07-08T08:20:56;21.50;99.90
59146;DHT22;44928;53.074;6.646;2023-07-08T08:23:22;21.60;99.90
59146;DHT22;44928;53.074;6.646;2023-07-08T08:25:48;21.60;99.90
59146;DHT22;44928;53.074;6.646;2023-07-08T08:28:15;21.70;99.90
59146;DHT22;44928;53.074;6.646;2023-07-08T08:30:41;21.80;99.90
59146;DHT22;44928;53.074;6.646;2023-07-08T08:33:07;21.90;99.90
59146;DHT22;44928;53.074;6.646;2023-07-08T08:35:32;22.00;99.90
59146;DHT22;44928;53.074;6.646;2023-07-08T08:37:58;22.10;99.90
59146;DHT22;44928;53.074;6.646;2023-07-08T08:40:24;22.20;99.90
59146;DHT22;44928;53.074;6.646;2023-07-08T08:43:10;22.40;99.90
59146;DHT22;44928;53.074;6.646;2023-07-08T08:48:18;22.60;99.90
59146;DHT22;44928;53.074;6.646;2023-07-08T08:51:05;22.80;99.90
59146;DHT22;44928;53.074;6.646;2023-07-08T08:53:32;23.00;99.90
59146;DHT22;44928;53.074;6.646;2023-07-08T08:56:05;23.10;99.90
59146;DHT22;44928;53.074;6.646;2023-07-08T08:58:43;23.30;99.90
59146;DHT22;44928;53.074;6.646;2023-07-08T09:01:15;23.50;99.90
59146;DHT22;44928;53.074;6.646;2023-07-08T09:03:51;23.70;99.90
59146;DHT22;44928;53.074;6.646;2023-07-08T09:06:27;23.90;99.90
59146;DHT22;44928;53.074;6.646;2023-07-08T09:08:54;24.10;99.90
59146;DHT22;44928;53.074;6.646;2023-07-08T09:13:54;24.60;99.90
59146;DHT22;44928;53.074;6.646;2023-07-08T09:19:12;25.00;99.90
59146;DHT22;44928;53.074;6.646;2023-07-08T09:24:36;25.40;99.90
59146;DHT22;44928;53.074;6.646;2023-07-08T09:27:04;25.60;99.90
59146;DHT22;44928;53.074;6.646;2023-07-08T09:29:32;25.80;99.80
59146;DHT22;44928;53.074;6.646;2023-07-08T09:31:58;25.90;99.30
59146;DHT22;44928;53.074;6.646;2023-07-08T09:34:49;26.10;99.10
59146;DHT22;44928;53.074;6.646;2023-07-08T09:37:28;26.20;98.90
59146;DHT22;44928;53.074;6.646;2023-07-08T09:39:56;26.50;98.70
59146;DHT22;44928;53.074;6.646;2023-07-08T09:42:42;26.70;98.30
59146;DHT22;44928;53.074;6.646;2023-07-08T09:45:14;26.80;98.40
59146;DHT22;44928;53.074;6.646;2023-07-08T09:47:42;27.00;97.90
59146;DHT22;44928;53.074;6.646;2023-07-08T09:50:26;27.20;97.70
59146;DHT22;44928;53.074;6.646;2023-07-08T09:52:56;27.40;96.30
59146;DHT22;44928;53.074;6.646;2023-07-08T09:55:23;27.60;95.50
59146;DHT22;44928;53.074;6.646;2023-07-08T09:57:52;27.80;95.00
59146;DHT22;44928;53.074;6.646;2023-07-08T10:00:30;28.00;94.90
59146;DHT22;44928;53.074;6.646;2023-07-08T10:03:08;28.20;94.60
59146;DHT22;44928;53.074;6.646;2023-07-08T10:05:38;28.30;94.40
59146;DHT22;44928;53.074;6.646;2023-07-08T10:08:25;28.50;93.40
59146;DHT22;44928;53.074;6.646;2023-07-08T10:11:48;28.70;93.40
59146;DHT22;44928;53.074;6.646;2023-07-08T10:14:05;28.90;93.50
59146;DHT22;44928;53.074;6.646;2023-07-08T10:16:33;29.10;92.50
59146;DHT22;44928;53.074;6.646;2023-07-08T10:19:00;29.30;92.10
59146;DHT22;44928;53.074;6.646;2023-07-08T10:21:40;29.40;92.30
59146;DHT22;44928;53.074;6.646;2023-07-08T10:26:48;29.80;90.90
59146;DHT22;44928;53.074;6.646;2023-07-08T10:39:55;30.50;90.60
59146;DHT22;44928;53.074;6.646;2023-07-08T10:42:41;30.60;89.10
59146;DHT22;44928;53.074;6.646;2023-07-08T10:45:23;30.80;88.10
59146;DHT22;44928;53.074;6.646;2023-07-08T10:57:18;31.40;84.20
59146;DHT22;44928;53.074;6.646;2023-07-08T11:11:06;31.90;73.20
59146;DHT22;44928;53.074;6.646;2023-07-08T11:13:35;32.00;73.80
59146;DHT22;44928;53.074;6.646;2023-07-08T11:16:04;32.00;72.90
59146;DHT22;44928;53.074;6.646;2023-07-08T11:18:50;32.10;72.40
59146;DHT22;44928;53.074;6.646;2023-07-08T11:21:23;32.20;71.30
59146;DHT22;44928;53.074;6.646;2023-07-08T11:24:00;32.30;69.70
59146;DHT22;44928;53.074;6.646;2023-07-08T11:26:38;32.40;68.70
59146;DHT22;44928;53.074;6.646;2023-07-08T11:29:18;32.40;67.10
59146;DHT22;44928;53.074;6.646;2023-07-08T11:31:46;32.50;67.80
59146;DHT22;44928;53.074;6.646;2023-07-08T11:34:14;32.60;67.70
59146;DHT22;44928;53.074;6.646;2023-07-08T11:36:41;32.80;67.00
59146;DHT22;44928;53.074;6.646;2023-07-08T11:39:41;32.90;67.60
59146;DHT22;44928;53.074;6.646;2023-07-08T11:42:39;33.10;66.80
59146;DHT22;44928;53.074;6.646;2023-07-08T11:45:25;33.10;65.50
59146;DHT22;44928;53.074;6.646;2023-07-08T11:47:53;33.30;64.70
59146;DHT22;44928;53.074;6.646;2023-07-08T11:50:29;33.30;63.80
59146;DHT22;44928;53.074;6.646;2023-07-08T11:53:02;33.30;63.20
59146;DHT22;44928;53.074;6.646;2023-07-08T11:55:47;33.40;63.50
59146;DHT22;44928;53.074;6.646;2023-07-08T11:58:27;33.50;62.60
59146;DHT22;44928;53.074;6.646;2023-07-08T12:03:47;33.50;61.30
59146;DHT22;44928;53.074;6.646;2023-07-08T12:09:00;33.50;61.50
59146;DHT22;44928;53.074;6.646;2023-07-08T12:11:43;33.60;61.10
59146;DHT22;44928;53.074;6.646;2023-07-08T12:14:09;33.70;60.90
59146;DHT22;44928;53.074;6.646;2023-07-08T12:16:35;33.70;60.00
59146;DHT22;44928;53.074;6.646;2023-07-08T12:19:02;33.70;59.60
59146;DHT22;44928;53.074;6.646;2023-07-08T12:21:36;33.80;59.70
59146;DHT22;44928;53.074;6.646;2023-07-08T12:24:06;33.80;60.40
59146;DHT22;44928;53.074;6.646;2023-07-08T12:26:33;33.90;58.60
59146;DHT22;44928;53.074;6.646;2023-07-08T12:28:59;33.90;57.10
59146;DHT22;44928;53.074;6.646;2023-07-08T12:31:25;33.90;57.90
59146;DHT22;44928;53.074;6.646;2023-07-08T12:33:51;33.90;57.80
59146;DHT22;44928;53.074;6.646;2023-07-08T12:36:20;34.00;57.60
59146;DHT22;44928;53.074;6.646;2023-07-08T12:38:47;34.00;57.50
59146;DHT22;44928;53.074;6.646;2023-07-08T12:41:28;34.00;56.80
59146;DHT22;44928;53.074;6.646;2023-07-08T12:43:55;34.10;55.50
59146;DHT22;44928;53.074;6.646;2023-07-08T12:46:22;34.00;54.40
59146;DHT22;44928;53.074;6.646;2023-07-08T12:48:49;33.90;55.10
59146;DHT22;44928;53.074;6.646;2023-07-08T12:51:17;33.90;55.00
59146;DHT22;44928;53.074;6.646;2023-07-08T12:53:44;33.80;54.70
59146;DHT22;44928;53.074;6.646;2023-07-08T12:56:10;33.70;55.30
59146;DHT22;44928;53.074;6.646;2023-07-08T12:58:41;33.70;54.40
59146;DHT22;44928;53.074;6.646;2023-07-08T13:01:08;33.60;54.20
59146;DHT22;44928;53.074;6.646;2023-07-08T13:03:41;33.50;54.40
59146;DHT22;44928;53.074;6.646;2023-07-08T13:06:09;33.40;54.50
59146;DHT22;44928;53.074;6.646;2023-07-08T13:08:38;33.40;54.20
59146;DHT22;44928;53.074;6.646;2023-07-08T13:11:05;33.20;54.40
59146;DHT22;44928;53.074;6.646;2023-07-08T13:13:38;33.20;54.60
59146;DHT22;44928;53.074;6.646;2023-07-08T13:16:05;33.10;54.90
59146;DHT22;44928;53.074;6.646;2023-07-08T13:18:33;33.00;53.90
59146;DHT22;44928;53.074;6.646;2023-07-08T13:21:00;33.00;53.90
59146;DHT22;44928;53.074;6.646;2023-07-08T13:23:27;32.90;53.60
59146;DHT22;44928;53.074;6.646;2023-07-08T13:25:54;32.80;54.00
59146;DHT22;44928;53.074;6.646;2023-07-08T13:28:24;32.70;53.10
59146;DHT22;44928;53.074;6.646;2023-07-08T13:31:02;32.70;53.50
59146;DHT22;44928;53.074;6.646;2023-07-08T13:33:32;32.70;54.20
59146;DHT22;44928;53.074;6.646;2023-07-08T13:36:02;32.70;53.80
59146;DHT22;44928;53.074;6.646;2023-07-08T13:38:33;32.70;53.80
59146;DHT22;44928;53.074;6.646;2023-07-08T13:41:01;32.70;54.60
59146;DHT22;44928;53.074;6.646;2023-07-08T13:43:32;32.70;53.70
59146;DHT22;44928;53.074;6.646;2023-07-08T13:46:00;32.60;52.60
59146;DHT22;44928;53.074;6.646;2023-07-08T13:48:40;32.60;52.80
59146;DHT22;44928;53.074;6.646;2023-07-08T13:51:11;32.70;53.30
59146;DHT22;44928;53.074;6.646;2023-07-08T13:56:19;32.60;49.90
59146;DHT22;44928;53.074;6.646;2023-07-08T13:58:47;32.60;50.70
59146;DHT22;44928;53.074;6.646;2023-07-08T14:01:25;32.60;50.80
59146;DHT22;44928;53.074;6.646;2023-07-08T14:03:52;32.60;50.50
59146;DHT22;44928;53.074;6.646;2023-07-08T14:06:25;32.60;50.70
59146;DHT22;44928;53.074;6.646;2023-07-08T14:08:56;32.60;50.60
59146;DHT22;44928;53.074;6.646;2023-07-08T14:11:22;32.60;50.40
59146;DHT22;44928;53.074;6.646;2023-07-08T14:13:48;32.60;51.30
59146;DHT22;44928;53.074;6.646;2023-07-08T14:16:27;32.70;49.50
59146;DHT22;44928;53.074;6.646;2023-07-08T14:18:58;32.70;49.40
59146;DHT22;44928;53.074;6.646;2023-07-08T14:21:24;32.80;50.20
59146;DHT22;44928;53.074;6.646;2023-07-08T14:23:50;32.80;50.70
59146;DHT22;44928;53.074;6.646;2023-07-08T14:26:17;32.90;50.20
59146;DHT22;44928;53.074;6.646;2023-07-08T14:28:43;32.90;49.20
59146;DHT22;44928;53.074;6.646;2023-07-08T14:31:14;32.90;49.20
59146;DHT22;44928;53.074;6.646;2023-07-08T14:33:40;33.00;49.50
59146;DHT22;44928;53.074;6.646;2023-07-08T14:36:12;33.00;49.30
59146;DHT22;44928;53.074;6.646;2023-07-08T14:38:40;33.00;49.50
59146;DHT22;44928;53.074;6.646;2023-07-08T14:41:06;33.10;49.80
59146;DHT22;44928;53.074;6.646;2023-07-08T14:43:33;33.00;48.80
59146;DHT22;44928;53.074;6.646;2023-07-08T14:46:02;33.00;48.90
59146;DHT22;44928;53.074;6.646;2023-07-08T14:48:29;33.00;49.90
59146;DHT22;44928;53.074;6.646;2023-07-08T14:50:55;33.10;50.20
59146;DHT22;44928;53.074;6.646;2023-07-08T14:53:21;33.10;49.30
59146;DHT22;44928;53.074;6.646;2023-07-08T14:55:49;33.00;48.70
59146;DHT22;44928;53.074;6.646;2023-07-08T14:58:24;33.00;48.90
59146;DHT22;44928;53.074;6.646;2023-07-08T15:00:51;32.90;48.90
59146;DHT22;44928;53.074;6.646;2023-07-08T15:03:17;32.80;48.90
59146;DHT22;44928;53.074;6.646;2023-07-08T15:05:43;32.80;48.70
59146;DHT22;44928;53.074;6.646;2023-07-08T15:08:09;32.70;49.00
59146;DHT22;44928;53.074;6.646;2023-07-08T15:10:36;32.60;49.40
59146;DHT22;44928;53.074;6.646;2023-07-08T15:13:02;32.60;49.60
59146;DHT22;44928;53.074;6.646;2023-07-08T15:15:33;32.60;49.60
59146;DHT22;44928;53.074;6.646;2023-07-08T15:18:02;32.60;50.10
59146;DHT22;44928;53.074;6.646;2023-07-08T15:20:34;32.60;49.80
59146;DHT22;44928;53.074;6.646;2023-07-08T15:22:59;32.50;49.20
59146;DHT22;44928;53.074;6.646;2023-07-08T15:25:26;32.50;49.20
59146;DHT22;44928;53.074;6.646;2023-07-08T15:27:53;32.40;48.90
59146;DHT22;44928;53.074;6.646;2023-07-08T15:30:25;32.40;49.00
59146;DHT22;44928;53.074;6.646;2023-07-08T15:32:51;32.30;49.30
59146;DHT22;44928;53.074;6.646;2023-07-08T15:35:22;32.20;48.90
59146;DHT22;44928;53.074;6.646;2023-07-08T15:37:50;32.20;48.40
59146;DHT22;44928;53.074;6.646;2023-07-08T15:40:18;32.20;49.10
59146;DHT22;44928;53.074;6.646;2023-07-08T15:42:50;32.20;50.00
59146;DHT22;44928;53.074;6.646;2023-07-08T15:45:36;32.10;49.60
59146;DHT22;44928;53.074;6.646;2023-07-08T15:48:03;32.10;49.20
59146;DHT22;44928;53.074;6.646;2023-07-08T15:50:29;32.00;49.10
59146;DHT22;44928;53.074;6.646;2023-07-08T15:52:56;31.90;48.80
59146;DHT22;44928;53.074;6.646;2023-07-08T15:55:33;31.90;49.70
59146;DHT22;44928;53.074;6.646;2023-07-08T15:58:02;31.90;49.70
59146;DHT22;44928;53.074;6.646;2023-07-08T16:00:32;31.90;49.70
59146;DHT22;44928;53.074;6.646;2023-07-08T16:03:00;31.90;50.20
59146;DHT22;44928;53.074;6.646;2023-07-08T16:05:27;31.80;49.20
59146;DHT22;44928;53.074;6.646;2023-07-08T16:07:54;31.70;49.30
59146;DHT22;44928;53.074;6.646;2023-07-08T16:10:21;31.80;49.70
59146;DHT22;44928;53.074;6.646;2023-07-08T16:12:51;31.70;50.10
59146;DHT22;44928;53.074;6.646;2023-07-08T16:15:31;31.70;49.80
59146;DHT22;44928;53.074;6.646;2023-07-08T16:17:58;31.70;50.80
59146;DHT22;44928;53.074;6.646;2023-07-08T16:20:28;31.70;51.40
59146;DHT22;44928;53.074;6.646;2023-07-08T16:22:54;31.70;51.90
59146;DHT22;44928;53.074;6.646;2023-07-08T16:25:28;31.70;52.20
59146;DHT22;44928;53.074;6.646;2023-07-08T16:27:54;31.70;53.40
59146;DHT22;44928;53.074;6.646;2023-07-08T16:30:21;31.70;51.70
59146;DHT22;44928;53.074;6.646;2023-07-08T16:32:48;31.60;51.00
59146;DHT22;44928;53.074;6.646;2023-07-08T16:35:17;31.60;50.60
59146;DHT22;44928;53.074;6.646;2023-07-08T16:37:45;31.60;51.00
59146;DHT22;44928;53.074;6.646;2023-07-08T16:40:31;31.60;51.50